Sunday, May 27, 2018, 9:25 AM EDT
Back to Local

KMUI, Muir Army Air Field / Indiantown

Location: Jonestown, PA, United States Lat: 40.433
Local Time: 9:25 AM EDT (13:25 GMT) Lon: -76.567
Time Zone: US/Eastern Elev: 488 ft

Show me the last for .
Show Decoded

2018-05-27 08:56 METAR KMUI 271256Z AUTO 04006KT 10SM FEW100 22/19 A2994 RMK AO2 SLP138 T02240193
                 $ =
2018-05-27 07:56 METAR KMUI 271156Z AUTO 01004KT 10SM BKN110 22/21 A2992 RMK AO2 SLP131 60000
                 T02190212 10223 20201 52017 $ =
2018-05-27 06:56 METAR KMUI 271056Z AUTO 02004KT 10SM FEW044 BKN090 21/21 A2991 RMK AO2 SLP127
                 T02100205 $ =
2018-05-27 05:56 METAR KMUI 270956Z AUTO 00000KT 10SM BKN080 20/20 A2988 RMK AO2
                 RAE00DZB00E04RAB21E32DZB32E35 SLP117 P0000 T02020199 $ =
2018-05-27 05:35 METAR KMUI 270935Z AUTO 00000KT 10SM OVC075 20/20 A2988 RMK AO2
                 RAE00DZB00E04RAB21E32DZB32E35 SLP117 $ =
2018-05-27 05:21 METAR KMUI 270921Z AUTO 00000KT 10SM -RA BKN080 21/20 A2988 RMK AO2
                 RAE00DZB00E04RAB21 SLP117 $ =
2018-05-27 05:04 METAR KMUI 270904Z AUTO 00000KT 10SM BKN090 21/20 A2987 RMK AO2 RAE00DZB00E04
                 SLP114 $ =
2018-05-27 04:56 METAR KMUI 270856Z AUTO 00000KT 10SM -RA BKN090 21/20 A2987 RMK AO2
                 DZB26E28RAB28 SLP114 P0000 60000 T02080203 55001 $ =
2018-05-27 04:26 METAR KMUI 270826Z AUTO 00000KT 10SM -DZ OVC095 21/20 A2987 RMK AO2 DZB26 SLP114
                 $ =
2018-05-27 03:56 METAR KMUI 270756Z AUTO 00000KT 10SM OVC100 21/20 A2987 RMK AO2 SLP114 T02090202
                 $ =
2018-05-27 02:56 METAR KMUI 270656Z AUTO 00000KT 10SM FEW080 FEW120 21/20 A2986 RMK AO2 SLP110
                 T02070202 $ =
2018-05-27 01:56 METAR KMUI 270556Z AUTO 00000KT 10SM FEW130 BKN160 21/20 A2987 RMK AO2 SLP114
                 T02130204 10262 20213 50001 $ =
2018-05-27 00:56 METAR KMUI 270456Z AUTO 00000KT 10SM FEW080 22/20 A2988 RMK AO2 SLP117 T02200199
                 403200163 $ =
2018-05-26 23:56 METAR KMUI 270356Z AUTO 00000KT 10SM BKN090 23/19 A2988 RMK AO2 SLP117 T02280191
                 $ =
2018-05-26 22:56 METAR KMUI 270256Z AUTO 00000KT 10SM FEW190 23/19 A2987 RMK AO2 SLP114 T02250189
                 51018 $ =
2018-05-26 21:56 METAR KMUI 270156Z AUTO 00000KT 10SM CLR 24/19 A2987 RMK AO2 SLP114 T02350188 $
                 =
2018-05-26 20:56 METAR KMUI 270056Z AUTO 23006KT 10SM SCT120 BKN220 25/18 A2984 RMK AO2 SLP104
                 T02540183 $ =
2018-05-26 19:56 METAR KMUI 262356Z AUTO 00000KT 10SM FEW120 FEW200 26/18 A2982 RMK AO2 SLP098
                 T02560175 10320 20256 53003 $ =
2018-05-26 18:56 METAR KMUI 262256Z AUTO 21003KT 10SM CLR 31/14 A2980 RMK AO2 SLP090 T03080144 $
                 =
2018-05-26 17:56 METAR KMUI 262156Z AUTO 20005KT 10SM CLR 31/14 A2980 RMK AO2 SLP091 T03140136 $
                 =
2018-05-26 16:56 METAR KMUI 262056Z AUTO 22006KT 10SM CLR 32/15 A2981 RMK AO2 SLP094 T03180153
                 55008 $ =
2018-05-26 15:56 METAR KMUI 261956Z AUTO 25007KT 10SM SCT060 32/16 A2980 RMK AO2 SLP090 T03170164
                 $ =
2018-05-26 14:56 METAR KMUI 261856Z AUTO 27005KT 10SM CLR 31/16 A2982 RMK AO2 SLP097 T03130164 =
2018-05-26 13:56 METAR KMUI 261756Z AUTO 23004KT 10SM SCT060 SCT170 31/16 A2983 RMK AO2 SLP100
                 60000 T03050161 10308 20193 56008 =
2018-05-26 12:56 METAR KMUI 261656Z AUTO 27007KT 10SM FEW060 SCT130 SCT180 30/16 A2985 RMK AO2
                 SLP108 T03040156 =
2018-05-26 11:56 METAR KMUI 261556Z AUTO 23004KT 10SM FEW160 FEW200 29/19 A2985 RMK AO2 SLP108
                 T02940188 =
2018-05-26 10:56 METAR KMUI 261456Z AUTO 23004KT 10SM CLR 27/21 A2985 RMK AO2 SLP108 60000
                 T02740207 58005 =
2018-05-26 09:56 METAR KMUI 261356Z AUTO 00000KT 10SM CLR 25/21 A2986 RMK AO2
                 RAB1256E1258RAB00E15 SLP111 P0000 T02520208 =

Support USWX by starting your Amazon purchase here.